Hanseatic — C6KA9 — position and weather

sailwx.info

Track history (hours):
 
Tides and Currents Weather Stations Pressure Air Temp Water Temp Dewpoint Dewpoint Depression Visibility Wind Speed Wind Dir Waves Ship Positions

Hanseatic

Operator: Hapag-Lloyd Container Line

Last reported at 2018-Apr-25 02:26 UTC. Time now 2018-Apr-25 02:39 UTC.
Position N 59°56' E 029°56'.

Length 123 m; draft 5.1 m.

Type: Ship. MMSI: 309577000.

Date/timePositionNaut miles runAvg speedWind from/ knotsBaromVisibWave heightAir tempDewpointWater temp
2018-Apr-25 02:26N 59°56' E 029°56'511.7
2018-Apr-25 02:00N 59°58' E 029°47'2510.5
2018-Apr-24 23:35N 60°02' E 028°56'111.0
2018-Apr-24 23:30N 60°02' E 028°54'611.3
2018-Apr-24 23:00N 60°02' E 028°43'611.2
2018-Apr-24 22:30N 60°02' E 028°32'510.8
2018-Apr-24 22:00N 60°04' E 028°22'511.0
2018-Apr-24 21:30N 60°07' E 028°13'611.2
2018-Apr-24 21:01N 60°09' E 028°02'611.3
2018-Apr-24 20:30N 60°10' E 027°51'5 9.9
2018-Apr-24 20:00N 60°09' E 027°41'510.6
2018-Apr-24 19:30N 60°06' E 027°32'510.7
2018-Apr-24 19:00N 60°03' E 027°23'510.7
2018-Apr-24 18:30N 60°01' E 027°14'612.2
2018-Apr-24 18:01N 59°58' E 027°03'612.5
2018-Apr-24 17:30N 59°58' E 026°51'612.6
2018-Apr-24 17:00N 59°60' E 026°38'612.5
2018-Apr-24 16:30N 59°58' E 026°27'612.8
2018-Apr-24 16:00N 59°56' E 026°14'3012.5
2018-Apr-24 13:38N 59°56' E 025°15'213.2
2018-Apr-24 13:30N 59°57' E 025°12'713.2
2018-Apr-24 13:00N 59°60' E 025°01'611.4
2018-Apr-24 12:30N 60°05' E 024°59'4 8.5
2018-Apr-24 12:00N 60°10' E 024°58'0 0.7
2018-Apr-24 11:27N 60°10' E 024°58'0 0.0
2018-Apr-24 10:59N 60°10' E 024°58'0 0.0
2018-Apr-24 10:29N 60°10' E 024°58'0 0.0
2018-Apr-24 09:59N 60°10' E 024°58'0 0.0
2018-Apr-24 09:29N 60°10' E 024°58'0 0.0
2018-Apr-24 08:59N 60°10' E 024°58'0 0.0
2018-Apr-24 08:29N 60°10' E 024°58'0 0.0
2018-Apr-24 07:58N 60°10' E 024°58'0 0.0
2018-Apr-24 07:30N 60°10' E 024°58'0 0.0
2018-Apr-24 06:59N 60°10' E 024°58'0 0.0
2018-Apr-24 06:29N 60°10' E 024°58'0 0.0
2018-Apr-24 06:01N 60°10' E 024°58'0 0.0
2018-Apr-24 05:29N 60°10' E 024°58'0 0.0
2018-Apr-24 04:58N 60°10' E 024°58'0 0.0
2018-Apr-24 04:28N 60°10' E 024°58'0 0.5
2018-Apr-24 04:00N 60°10' E 024°58'510.1
2018-Apr-24 03:30N 60°05' E 024°58'4 8.3
2018-Apr-24 03:00N 60°01' E 024°57'4 8.6
2018-Apr-24 02:30N 59°56' E 024°56'5 9.0
2018-Apr-24 01:59N 59°52' E 024°55'4 8.7
2018-Apr-24 01:30N 59°48' E 024°53'4 8.1
2018-Apr-24 01:01N 59°46' E 024°46'3 6.6
2018-Apr-24 00:30N 59°45' E 024°39'3 6.6
2018-Apr-24 00:01N 59°45' E 024°33'3 6.4
2018-Apr-23 23:31N 59°44' E 024°27'3 6.3
2018-Apr-23 23:01N 59°43' E 024°21'4 6.4
2018-Apr-23 22:22N 59°42' E 024°13'2 6.4
2018-Apr-23 22:00N 59°41' E 024°09'4 6.6
2018-Apr-23 21:28N 59°40' E 024°02'3 6.5
2018-Apr-23 21:00N 59°39' E 023°56'3 6.5
2018-Apr-23 20:30N 59°38' E 023°50'3 6.7
2018-Apr-23 20:00N 59°37' E 023°44'3 6.6
2018-Apr-23 19:30N 59°36' E 023°38'3 6.4
2018-Apr-23 19:00N 59°35' E 023°32'4 7.9
2018-Apr-23 18:30N 59°34' E 023°24'712.3
2018-Apr-23 17:57N 59°31' E 023°12'512.3
2018-Apr-23 17:30N 59°29' E 023°02'612.1
2018-Apr-23 17:00N 59°27' E 022°51'  
2018-Apr-21 00:22N 55°38' E 019°20'411.5
2018-Apr-21 00:00N 55°38' E 019°13'611.4
2018-Apr-20 23:30N 55°37' E 019°03'6911.3
2018-Apr-20 17:21N 55°26' E 017°02'611.1
2018-Apr-20 16:48N 55°25' E 016°51'311.1
2018-Apr-20 16:30N 55°25' E 016°45'611.0
2018-Apr-20 15:57N 55°24' E 016°35'511.1
2018-Apr-20 15:30N 55°23' E 016°26'611.4
2018-Apr-20 15:00N 55°21' E 016°16'711.6
2018-Apr-20 14:24N 55°20' E 016°04'511.7
2018-Apr-20 14:00N 55°19' E 015°56'611.5
2018-Apr-20 13:28N 55°18' E 015°46'511.5
2018-Apr-20 13:00N 55°16' E 015°37'811.2
2018-Apr-20 12:19N 55°15' E 015°23'311.1
2018-Apr-20 12:00N 55°15' E 015°17'611.4
2018-Apr-20 11:30N 55°14' E 015°07'5 9.9
2018-Apr-20 11:00N 55°13' E 014°59'0 0.6
2018-Apr-20 10:29N 55°13' E 014°58'0 0.0
2018-Apr-20 09:59N 55°13' E 014°58'0 0.0
2018-Apr-20 09:29N 55°13' E 014°58'0 0.1
2018-Apr-20 09:00N 55°13' E 014°58'0 0.0
2018-Apr-20 08:25N 55°13' E 014°58'0 0.0
2018-Apr-20 07:55N 55°13' E 014°58'0 0.0
2018-Apr-20 07:30N 55°13' E 014°58'0 0.1
2018-Apr-20 07:00N 55°13' E 014°58'0 0.0
2018-Apr-20 06:30N 55°13' E 014°58'0 0.0
2018-Apr-20 06:00N 55°13' E 014°58'0 0.1
2018-Apr-20 05:30N 55°13' E 014°58'2 4.3
2018-Apr-20 05:00N 55°14' E 015°02'3 6.6
2018-Apr-20 04:30N 55°12' E 015°07'4 7.9
2018-Apr-20 04:00N 55°10' E 015°13'4 7.9
2018-Apr-20 03:30N 55°06' E 015°13'4 8.0
2018-Apr-20 03:00N 55°02' E 015°13'4 8.0
2018-Apr-20 02:30N 54°58' E 015°11'4 8.0
2018-Apr-20 02:00N 54°54' E 015°08'4 7.9
2018-Apr-20 01:30N 54°51' E 015°05'4 7.9
2018-Apr-20 01:00N 54°47' E 015°03'4 7.6
2018-Apr-20 00:30N 54°44' E 015°00'4 7.4
2018-Apr-19 23:59N 54°40' E 014°57'4 7.4
2018-Apr-19 23:30N 54°37' E 014°55'6 7.4
2018-Apr-19 22:45N 54°32' E 014°52'2 7.4
2018-Apr-19 22:30N 54°30' E 014°50'4 7.4
2018-Apr-19 22:00N 54°27' E 014°48'4 7.4
2018-Apr-19 21:30N 54°23' E 014°45'4 7.3
2018-Apr-19 21:00N 54°20' E 014°43'85 3.5
2018-Apr-18 20:59N 54°32' E 012°18'510.5
2018-Apr-18 20:30N 54°27' E 012°14'510.3
2018-Apr-18 20:00N 54°24' E 012°07'1910.8
2018-Apr-18 18:12N 54°28' E 011°34'211.4
2018-Apr-18 17:59N 54°29' E 011°30'611.5
2018-Apr-18 17:30N 54°32' E 011°22'611.7
2018-Apr-18 17:00N 54°34' E 011°13'611.2
2018-Apr-18 16:30N 54°35' E 011°03'611.1
2018-Apr-18 16:00N 54°34' E 010°54'510.9
2018-Apr-18 15:30N 54°34' E 010°44'510.7
2018-Apr-18 15:00N 54°33' E 010°35'510.6
2018-Apr-18 14:29N 54°31' E 010°26'22 6.4
2018-Apr-18 11:07N 54°21' E 009°54'2 8.0
2018-Apr-18 10:55N 54°22' E 009°51'3 7.5
2018-Apr-18 10:30N 54°21' E 009°46'4 7.9
2018-Apr-18 10:00N 54°18' E 009°42'4 7.4
2018-Apr-18 09:29N 54°15' E 009°37'3 7.1
2018-Apr-18 09:00N 54°12' E 009°34'4 8.6
2018-Apr-18 08:30N 54°11' E 009°27'4 8.0
2018-Apr-18 08:00N 54°09' E 009°21'4 7.9
2018-Apr-18 07:31N 54°05' E 009°19'4 8.3
2018-Apr-18 07:00N 54°01' E 009°18'4 8.0
2018-Apr-18 06:30N 53°57' E 009°14'1 1.6
2018-Apr-18 05:59N 53°57' E 009°14'1 3.0
2018-Apr-18 05:30N 53°55' E 009°12'3 5.1
2018-Apr-18 04:59N 53°54' E 009°09'0 0.5
2018-Apr-18 04:31N 53°54' E 009°08'1 2.5
2018-Apr-18 04:01N 53°53' E 009°10'510.2
2018-Apr-18 03:30N 53°51' E 009°19'611.5
2018-Apr-18 03:01N 53°47' E 009°24'510.9
2018-Apr-18 02:30N 53°42' E 009°30'510.5
2018-Apr-18 02:00N 53°37' E 009°33'5 9.4
2018-Apr-18 01:31N 53°34' E 009°39'4 8.6
2018-Apr-18 01:00N 53°34' E 009°46'4 8.5
2018-Apr-18 00:31N 53°33' E 009°53'4 7.9
2018-Apr-18 00:00N 53°32' E 009°59'0 0.4
2018-Apr-17 23:29N 53°32' E 009°60'0 0.0
2018-Apr-17 22:59N 53°32' E 009°60'0 0.0
2018-Apr-17 22:29N 53°32' E 009°60'0 0.0
2018-Apr-17 21:59N 53°32' E 009°60'0 0.0
2018-Apr-17 21:29N 53°32' E 009°60'0 0.0
2018-Apr-17 20:59N 53°32' E 009°60'0 0.0
2018-Apr-17 20:29N 53°32' E 009°60'0 0.0
2018-Apr-17 19:59N 53°32' E 009°60'0 0.0
2018-Apr-17 19:29N 53°32' E 009°60'0 0.0
2018-Apr-17 18:59N 53°32' E 009°60'0 0.0
2018-Apr-17 18:29N 53°32' E 009°60'0 0.0
2018-Apr-17 17:59N 53°32' E 009°60'0 0.0
2018-Apr-17 17:26N 53°32' E 009°60'0 0.0
2018-Apr-17 16:59N 53°32' E 009°60'0 0.0
2018-Apr-17 16:29N 53°32' E 009°60'0 0.0
2018-Apr-17 15:59N 53°32' E 009°60'0 0.0
2018-Apr-17 15:26N 53°32' E 009°60'0 0.0
2018-Apr-17 14:59N 53°32' E 009°60'0 0.0
2018-Apr-17 14:29N 53°32' E 009°60'0 0.0
2018-Apr-17 13:59N 53°32' E 009°60'0 0.0
2018-Apr-17 13:29N 53°32' E 009°60'0 0.0
2018-Apr-17 12:59N 53°32' E 009°60'0 0.0
2018-Apr-17 12:29N 53°32' E 009°60'0 0.0
2018-Apr-17 11:59N 53°32' E 009°60'0 0.0
2018-Apr-17 11:29N 53°32' E 009°60'0 0.0
2018-Apr-17 10:59N 53°32' E 009°60'0 0.0
2018-Apr-17 10:29N 53°32' E 009°60'0 0.0
2018-Apr-17 09:59N 53°32' E 009°60'0 0.0
2018-Apr-17 09:29N 53°32' E 009°60'0 0.0
2018-Apr-17 08:59N 53°32' E 009°60'0 0.0
2018-Apr-17 08:26N 53°32' E 009°60'0 0.0
2018-Apr-17 07:59N 53°32' E 009°60'0 0.0
2018-Apr-17 07:28N 53°32' E 009°60'2 3.4
2018-Apr-17 07:00N 53°33' E 009°57'0 0.6
2018-Apr-17 06:30N 53°32' E 009°57'0 0.0
2018-Apr-17 06:00N 53°32' E 009°57'0 0.0
2018-Apr-17 05:30N 53°32' E 009°57'0 0.0
2018-Apr-17 05:00N 53°32' E 009°57'0 0.0
2018-Apr-17 04:30N 53°32' E 009°57'0 0.0
2018-Apr-17 04:00N 53°32' E 009°57'0 0.0
2018-Apr-17 03:30N 53°32' E 009°57'0 0.0
2018-Apr-17 03:00N 53°32' E 009°57'0 0.0
2018-Apr-17 02:30N 53°32' E 009°57'0 0.0
2018-Apr-17 02:00N 53°32' E 009°57'0 0.0
2018-Apr-17 01:30N 53°32' E 009°57'0 0.0
2018-Apr-17 01:00N 53°32' E 009°57'0 0.0
2018-Apr-17 00:30N 53°32' E 009°57'0 0.0
2018-Apr-17 00:00N 53°32' E 009°57'0 0.0
2018-Apr-16 23:30N 53°32' E 009°57'0 0.0
2018-Apr-16 23:00N 53°32' E 009°57'0 0.0
2018-Apr-16 22:27N 53°32' E 009°57'0 0.0
2018-Apr-16 22:00N 53°32' E 009°57'0 0.0
2018-Apr-16 21:29N 53°32' E 009°57'0 0.0
2018-Apr-16 20:59N 53°32' E 009°57'0 0.0
2018-Apr-16 20:29N 53°32' E 009°57'0 0.0
2018-Apr-16 19:59N 53°32' E 009°57'0 0.0
2018-Apr-16 19:29N 53°32' E 009°57'0 0.0
2018-Apr-16 18:59N 53°32' E 009°57'0 0.0
2018-Apr-16 18:29N 53°32' E 009°57'0 0.0
2018-Apr-16 17:59N 53°32' E 009°57'0 0.7
2018-Apr-16 17:30N 53°33' E 009°57'0 0.5
2018-Apr-16 16:59N 53°33' E 009°58'0 0.0
2018-Apr-16 16:29N 53°33' E 009°58'0 0.0
2018-Apr-16 15:59N 53°33' E 009°58'0 0.0
2018-Apr-16 15:29N 53°33' E 009°58'0 0.0
2018-Apr-16 14:59N 53°33' E 009°58'0 0.0
2018-Apr-16 14:29N 53°33' E 009°58'0 0.0
2018-Apr-16 13:59N 53°33' E 009°58'0 0.0
2018-Apr-16 13:29N 53°33' E 009°58'0 0.0
2018-Apr-16 12:59N 53°33' E 009°58'0 0.0
2018-Apr-16 12:29N 53°33' E 009°58'0 0.0
2018-Apr-16 11:59N 53°33' E 009°58'0 0.0
2018-Apr-16 11:29N 53°33' E 009°58'0 0.0
2018-Apr-16 10:59N 53°33' E 009°58'0 0.0
2018-Apr-16 10:29N 53°33' E 009°58'0 0.0
2018-Apr-16 09:59N 53°33' E 009°58'0 0.0
2018-Apr-16 09:29N 53°33' E 009°58'0 0.0
2018-Apr-16 08:59N 53°33' E 009°58'0 0.0
2018-Apr-16 08:29N 53°33' E 009°58'0 0.0
2018-Apr-16 07:59N 53°33' E 009°58'0 0.0
2018-Apr-16 07:29N 53°33' E 009°58'0 0.0
2018-Apr-16 06:59N 53°33' E 009°58'0 0.0
2018-Apr-16 06:29N 53°33' E 009°58'0 0.0
2018-Apr-16 05:59N 53°33' E 009°58'0 0.0
2018-Apr-16 05:29N 53°33' E 009°58'0 0.0
2018-Apr-16 04:59N 53°33' E 009°58'0 0.0
2018-Apr-16 04:29N 53°33' E 009°58'0 0.0
2018-Apr-16 03:59N 53°33' E 009°58'0 0.0
2018-Apr-16 03:29N 53°33' E 009°58'0 0.0
2018-Apr-16 02:59N 53°33' E 009°58'0 0.0
2018-Apr-16 02:29N 53°33' E 009°58'0 0.0
2018-Apr-16 01:59N 53°33' E 009°58'0 0.0
2018-Apr-16 01:29N 53°33' E 009°58'0 0.0
2018-Apr-16 00:59N 53°33' E 009°58'0 0.0
2018-Apr-16 00:29N 53°33' E 009°58'0 0.0
2018-Apr-15 23:59N 53°33' E 009°58'0 0.0
2018-Apr-15 23:29N 53°33' E 009°58'0 0.0
2018-Apr-15 22:59N 53°33' E 009°58'0 0.0
2018-Apr-15 22:29N 53°33' E 009°58'0 0.0
2018-Apr-15 21:59N 53°33' E 009°58'0 0.0
2018-Apr-15 21:29N 53°33' E 009°58'0 0.0
2018-Apr-15 20:59N 53°33' E 009°58'0 0.0
2018-Apr-15 20:29N 53°33' E 009°58'0 0.0
2018-Apr-15 19:59N 53°33' E 009°58'0 0.0
2018-Apr-15 19:29N 53°33' E 009°58'0 0.0
2018-Apr-15 18:59N 53°33' E 009°58'0 0.0
2018-Apr-15 18:29N 53°33' E 009°58'0 0.0
2018-Apr-15 17:59N 53°33' E 009°58'0 0.0
2018-Apr-15 17:29N 53°33' E 009°58'0 0.0
2018-Apr-15 16:59N 53°33' E 009°58'0 0.0
2018-Apr-15 16:29N 53°33' E 009°58'0 0.0
2018-Apr-15 15:59N 53°33' E 009°58'0 0.0
2018-Apr-15 15:29N 53°33' E 009°58'0 0.0
2018-Apr-15 14:59N 53°33' E 009°58'0 0.0
2018-Apr-15 14:29N 53°33' E 009°58'0 0.0
2018-Apr-15 13:59N 53°33' E 009°58'0 0.0
2018-Apr-15 13:29N 53°33' E 009°58'0 0.0
2018-Apr-15 12:59N 53°33' E 009°58'0 0.0
2018-Apr-15 12:29N 53°33' E 009°58'0 0.0
2018-Apr-15 11:59N 53°33' E 009°58'0 0.0
2018-Apr-15 11:29N 53°33' E 009°58'0 0.0
2018-Apr-15 10:59N 53°33' E 009°58'0 0.0
2018-Apr-15 10:29N 53°33' E 009°58'0 0.0
2018-Apr-15 09:59N 53°33' E 009°58'0 0.0
2018-Apr-15 09:29N 53°33' E 009°58'0 0.0
2018-Apr-15 08:59N 53°33' E 009°58'0 0.0
2018-Apr-15 08:29N 53°33' E 009°58'0 0.0
2018-Apr-15 07:59N 53°33' E 009°58'0 0.0
2018-Apr-15 07:29N 53°33' E 009°58'0 0.0
2018-Apr-15 06:59N 53°33' E 009°58'0 0.0
2018-Apr-15 06:29N 53°33' E 009°58'0 0.0
2018-Apr-15 05:59N 53°33' E 009°58'0 0.0
2018-Apr-15 05:29N 53°33' E 009°58'0 0.0
2018-Apr-15 04:59N 53°33' E 009°58'0 0.0
2018-Apr-15 04:29N 53°33' E 009°58'0 0.0
2018-Apr-15 03:59N 53°33' E 009°58'0 0.0
2018-Apr-15 03:29N 53°33' E 009°58'0 0.0
2018-Apr-15 02:59N 53°33' E 009°58'0 0.0
2018-Apr-15 02:29N 53°33' E 009°58'  
Track history (hours):
 
Tides and Currents Weather Stations Pressure Air Temp Water Temp Dewpoint Dewpoint Depression Visibility Wind Speed Wind Dir Waves Ship Positions

Hanseatic

Operator: Hapag-Lloyd Container Line

Last reported at 2018-Apr-25 02:26 UTC. Time now 2018-Apr-25 02:39 UTC.
Position N 59°56' E 029°56'.

Length 123 m; draft 5.1 m.

Type: Ship. MMSI: 309577000.

Date/timePositionNaut miles runAvg speedWind from/ knotsBaromVisibWave heightAir tempDewpointWater temp
2018-Apr-25 02:26N 59°56' E 029°56'511.7
2018-Apr-25 02:00N 59°58' E 029°47'2510.5
2018-Apr-24 23:35N 60°02' E 028°56'111.0
2018-Apr-24 23:30N 60°02' E 028°54'611.3
2018-Apr-24 23:00N 60°02' E 028°43'611.2
2018-Apr-24 22:30N 60°02' E 028°32'510.8
2018-Apr-24 22:00N 60°04' E 028°22'511.0
2018-Apr-24 21:30N 60°07' E 028°13'611.2
2018-Apr-24 21:01N 60°09' E 028°02'611.3
2018-Apr-24 20:30N 60°10' E 027°51'5 9.9
2018-Apr-24 20:00N 60°09' E 027°41'510.6
2018-Apr-24 19:30N 60°06' E 027°32'510.7
2018-Apr-24 19:00N 60°03' E 027°23'510.7
2018-Apr-24 18:30N 60°01' E 027°14'612.2
2018-Apr-24 18:01N 59°58' E 027°03'612.5
2018-Apr-24 17:30N 59°58' E 026°51'612.6
2018-Apr-24 17:00N 59°60' E 026°38'612.5
2018-Apr-24 16:30N 59°58' E 026°27'612.8
2018-Apr-24 16:00N 59°56' E 026°14'3012.5
2018-Apr-24 13:38N 59°56' E 025°15'213.2
2018-Apr-24 13:30N 59°57' E 025°12'713.2
2018-Apr-24 13:00N 59°60' E 025°01'611.4
2018-Apr-24 12:30N 60°05' E 024°59'4 8.5
2018-Apr-24 12:00N 60°10' E 024°58'0 0.7
2018-Apr-24 11:27N 60°10' E 024°58'0 0.0
2018-Apr-24 10:59N 60°10' E 024°58'0 0.0
2018-Apr-24 10:29N 60°10' E 024°58'0 0.0
2018-Apr-24 09:59N 60°10' E 024°58'0 0.0
2018-Apr-24 09:29N 60°10' E 024°58'0 0.0
2018-Apr-24 08:59N 60°10' E 024°58'0 0.0
2018-Apr-24 08:29N 60°10' E 024°58'0 0.0
2018-Apr-24 07:58N 60°10' E 024°58'0 0.0
2018-Apr-24 07:30N 60°10' E 024°58'0 0.0
2018-Apr-24 06:59N 60°10' E 024°58'0 0.0
2018-Apr-24 06:29N 60°10' E 024°58'0 0.0
2018-Apr-24 06:01N 60°10' E 024°58'0 0.0
2018-Apr-24 05:29N 60°10' E 024°58'0 0.0
2018-Apr-24 04:58N 60°10' E 024°58'0 0.0
2018-Apr-24 04:28N 60°10' E 024°58'0 0.5
2018-Apr-24 04:00N 60°10' E 024°58'510.1
2018-Apr-24 03:30N 60°05' E 024°58'4 8.3
2018-Apr-24 03:00N 60°01' E 024°57'4 8.6
2018-Apr-24 02:30N 59°56' E 024°56'5 9.0
2018-Apr-24 01:59N 59°52' E 024°55'4 8.7
2018-Apr-24 01:30N 59°48' E 024°53'4 8.1
2018-Apr-24 01:01N 59°46' E 024°46'3 6.6
2018-Apr-24 00:30N 59°45' E 024°39'3 6.6
2018-Apr-24 00:01N 59°45' E 024°33'3 6.4
2018-Apr-23 23:31N 59°44' E 024°27'3 6.3
2018-Apr-23 23:01N 59°43' E 024°21'4 6.4
2018-Apr-23 22:22N 59°42' E 024°13'2 6.4
2018-Apr-23 22:00N 59°41' E 024°09'4 6.6
2018-Apr-23 21:28N 59°40' E 024°02'3 6.5
2018-Apr-23 21:00N 59°39' E 023°56'3 6.5
2018-Apr-23 20:30N 59°38' E 023°50'3 6.7
2018-Apr-23 20:00N 59°37' E 023°44'3 6.6
2018-Apr-23 19:30N 59°36' E 023°38'3 6.4
2018-Apr-23 19:00N 59°35' E 023°32'4 7.9
2018-Apr-23 18:30N 59°34' E 023°24'712.3
2018-Apr-23 17:57N 59°31' E 023°12'512.3
2018-Apr-23 17:30N 59°29' E 023°02'612.1
2018-Apr-23 17:00N 59°27' E 022°51'  
2018-Apr-21 00:22N 55°38' E 019°20'411.5
2018-Apr-21 00:00N 55°38' E 019°13'611.4
2018-Apr-20 23:30N 55°37' E 019°03'6911.3
2018-Apr-20 17:21N 55°26' E 017°02'611.1
2018-Apr-20 16:48N 55°25' E 016°51'311.1
2018-Apr-20 16:30N 55°25' E 016°45'611.0
2018-Apr-20 15:57N 55°24' E 016°35'511.1
2018-Apr-20 15:30N 55°23' E 016°26'611.4
2018-Apr-20 15:00N 55°21' E 016°16'711.6
2018-Apr-20 14:24N 55°20' E 016°04'511.7
2018-Apr-20 14:00N 55°19' E 015°56'611.5
2018-Apr-20 13:28N 55°18' E 015°46'511.5
2018-Apr-20 13:00N 55°16' E 015°37'811.2
2018-Apr-20 12:19N 55°15' E 015°23'311.1
2018-Apr-20 12:00N 55°15' E 015°17'611.4
2018-Apr-20 11:30N 55°14' E 015°07'5 9.9
2018-Apr-20 11:00N 55°13' E 014°59'0 0.6
2018-Apr-20 10:29N 55°13' E 014°58'0 0.0
2018-Apr-20 09:59N 55°13' E 014°58'0 0.0
2018-Apr-20 09:29N 55°13' E 014°58'0 0.1
2018-Apr-20 09:00N 55°13' E 014°58'0 0.0
2018-Apr-20 08:25N 55°13' E 014°58'0 0.0
2018-Apr-20 07:55N 55°13' E 014°58'0 0.0
2018-Apr-20 07:30N 55°13' E 014°58'0 0.1
2018-Apr-20 07:00N 55°13' E 014°58'0 0.0
2018-Apr-20 06:30N 55°13' E 014°58'0 0.0
2018-Apr-20 06:00N 55°13' E 014°58'0 0.1
2018-Apr-20 05:30N 55°13' E 014°58'2 4.3
2018-Apr-20 05:00N 55°14' E 015°02'3 6.6
2018-Apr-20 04:30N 55°12' E 015°07'4 7.9
2018-Apr-20 04:00N 55°10' E 015°13'4 7.9
2018-Apr-20 03:30N 55°06' E 015°13'4 8.0
2018-Apr-20 03:00N 55°02' E 015°13'4 8.0
2018-Apr-20 02:30N 54°58' E 015°11'4 8.0
2018-Apr-20 02:00N 54°54' E 015°08'4 7.9
2018-Apr-20 01:30N 54°51' E 015°05'4 7.9
2018-Apr-20 01:00N 54°47' E 015°03'4 7.6
2018-Apr-20 00:30N 54°44' E 015°00'4 7.4
2018-Apr-19 23:59N 54°40' E 014°57'4 7.4
2018-Apr-19 23:30N 54°37' E 014°55'6 7.4
2018-Apr-19 22:45N 54°32' E 014°52'2 7.4
2018-Apr-19 22:30N 54°30' E 014°50'4 7.4
2018-Apr-19 22:00N 54°27' E 014°48'4 7.4
2018-Apr-19 21:30N 54°23' E 014°45'4 7.3
2018-Apr-19 21:00N 54°20' E 014°43'85 3.5
2018-Apr-18 20:59N 54°32' E 012°18'510.5
2018-Apr-18 20:30N 54°27' E 012°14'510.3
2018-Apr-18 20:00N 54°24' E 012°07'1910.8
2018-Apr-18 18:12N 54°28' E 011°34'211.4
2018-Apr-18 17:59N 54°29' E 011°30'611.5
2018-Apr-18 17:30N 54°32' E 011°22'611.7
2018-Apr-18 17:00N 54°34' E 011°13'611.2
2018-Apr-18 16:30N 54°35' E 011°03'611.1
2018-Apr-18 16:00N 54°34' E 010°54'510.9
2018-Apr-18 15:30N 54°34' E 010°44'510.7
2018-Apr-18 15:00N 54°33' E 010°35'510.6
2018-Apr-18 14:29N 54°31' E 010°26'22 6.4
2018-Apr-18 11:07N 54°21' E 009°54'2 8.0
2018-Apr-18 10:55N 54°22' E 009°51'3 7.5
2018-Apr-18 10:30N 54°21' E 009°46'4 7.9
2018-Apr-18 10:00N 54°18' E 009°42'4 7.4
2018-Apr-18 09:29N 54°15' E 009°37'3 7.1
2018-Apr-18 09:00N 54°12' E 009°34'4 8.6
2018-Apr-18 08:30N 54°11' E 009°27'4 8.0
2018-Apr-18 08:00N 54°09' E 009°21'4 7.9
2018-Apr-18 07:31N 54°05' E 009°19'4 8.3
2018-Apr-18 07:00N 54°01' E 009°18'4 8.0
2018-Apr-18 06:30N 53°57' E 009°14'1 1.6
2018-Apr-18 05:59N 53°57' E 009°14'1 3.0
2018-Apr-18 05:30N 53°55' E 009°12'3 5.1
2018-Apr-18 04:59N 53°54' E 009°09'0 0.5
2018-Apr-18 04:31N 53°54' E 009°08'1 2.5
2018-Apr-18 04:01N 53°53' E 009°10'510.2
2018-Apr-18 03:30N 53°51' E 009°19'611.5
2018-Apr-18 03:01N 53°47' E 009°24'510.9
2018-Apr-18 02:30N 53°42' E 009°30'510.5
2018-Apr-18 02:00N 53°37' E 009°33'5 9.4
2018-Apr-18 01:31N 53°34' E 009°39'4 8.6
2018-Apr-18 01:00N 53°34' E 009°46'4 8.5
2018-Apr-18 00:31N 53°33' E 009°53'4 7.9
2018-Apr-18 00:00N 53°32' E 009°59'0 0.4
2018-Apr-17 23:29N 53°32' E 009°60'0 0.0
2018-Apr-17 22:59N 53°32' E 009°60'0 0.0
2018-Apr-17 22:29N 53°32' E 009°60'0 0.0
2018-Apr-17 21:59N 53°32' E 009°60'0 0.0
2018-Apr-17 21:29N 53°32' E 009°60'0 0.0
2018-Apr-17 20:59N 53°32' E 009°60'0 0.0
2018-Apr-17 20:29N 53°32' E 009°60'0 0.0
2018-Apr-17 19:59N 53°32' E 009°60'0 0.0
2018-Apr-17 19:29N 53°32' E 009°60'0 0.0
2018-Apr-17 18:59N 53°32' E 009°60'0 0.0
2018-Apr-17 18:29N 53°32' E 009°60'0 0.0
2018-Apr-17 17:59N 53°32' E 009°60'0 0.0
2018-Apr-17 17:26N 53°32' E 009°60'0 0.0
2018-Apr-17 16:59N 53°32' E 009°60'0 0.0
2018-Apr-17 16:29N 53°32' E 009°60'0 0.0
2018-Apr-17 15:59N 53°32' E 009°60'0 0.0
2018-Apr-17 15:26N 53°32' E 009°60'0 0.0
2018-Apr-17 14:59N 53°32' E 009°60'0 0.0
2018-Apr-17 14:29N 53°32' E 009°60'0 0.0
2018-Apr-17 13:59N 53°32' E 009°60'0 0.0
2018-Apr-17 13:29N 53°32' E 009°60'0 0.0
2018-Apr-17 12:59N 53°32' E 009°60'0 0.0
2018-Apr-17 12:29N 53°32' E 009°60'0 0.0
2018-Apr-17 11:59N 53°32' E 009°60'0 0.0
2018-Apr-17 11:29N 53°32' E 009°60'0 0.0
2018-Apr-17 10:59N 53°32' E 009°60'0 0.0
2018-Apr-17 10:29N 53°32' E 009°60'0 0.0
2018-Apr-17 09:59N 53°32' E 009°60'0 0.0
2018-Apr-17 09:29N 53°32' E 009°60'0 0.0
2018-Apr-17 08:59N 53°32' E 009°60'0 0.0
2018-Apr-17 08:26N 53°32' E 009°60'0 0.0
2018-Apr-17 07:59N 53°32' E 009°60'0 0.0
2018-Apr-17 07:28N 53°32' E 009°60'2 3.4
2018-Apr-17 07:00N 53°33' E 009°57'0 0.6
2018-Apr-17 06:30N 53°32' E 009°57'0 0.0
2018-Apr-17 06:00N 53°32' E 009°57'0 0.0
2018-Apr-17 05:30N 53°32' E 009°57'0 0.0
2018-Apr-17 05:00N 53°32' E 009°57'0 0.0
2018-Apr-17 04:30N 53°32' E 009°57'0 0.0
2018-Apr-17 04:00N 53°32' E 009°57'0 0.0
2018-Apr-17 03:30N 53°32' E 009°57'0 0.0
2018-Apr-17 03:00N 53°32' E 009°57'0 0.0
2018-Apr-17 02:30N 53°32' E 009°57'0 0.0
2018-Apr-17 02:00N 53°32' E 009°57'0 0.0
2018-Apr-17 01:30N 53°32' E 009°57'0 0.0
2018-Apr-17 01:00N 53°32' E 009°57'0 0.0
2018-Apr-17 00:30N 53°32' E 009°57'0 0.0
2018-Apr-17 00:00N 53°32' E 009°57'0 0.0
2018-Apr-16 23:30N 53°32' E 009°57'0 0.0
2018-Apr-16 23:00N 53°32' E 009°57'0 0.0
2018-Apr-16 22:27N 53°32' E 009°57'0 0.0
2018-Apr-16 22:00N 53°32' E 009°57'0 0.0
2018-Apr-16 21:29N 53°32' E 009°57'0 0.0
2018-Apr-16 20:59N 53°32' E 009°57'0 0.0
2018-Apr-16 20:29N 53°32' E 009°57'0 0.0
2018-Apr-16 19:59N 53°32' E 009°57'0 0.0
2018-Apr-16 19:29N 53°32' E 009°57'0 0.0
2018-Apr-16 18:59N 53°32' E 009°57'0 0.0
2018-Apr-16 18:29N 53°32' E 009°57'0 0.0
2018-Apr-16 17:59N 53°32' E 009°57'0 0.7
2018-Apr-16 17:30N 53°33' E 009°57'0 0.5
2018-Apr-16 16:59N 53°33' E 009°58'0 0.0
2018-Apr-16 16:29N 53°33' E 009°58'0 0.0
2018-Apr-16 15:59N 53°33' E 009°58'0 0.0
2018-Apr-16 15:29N 53°33' E 009°58'0 0.0
2018-Apr-16 14:59N 53°33' E 009°58'0 0.0
2018-Apr-16 14:29N 53°33' E 009°58'0 0.0
2018-Apr-16 13:59N 53°33' E 009°58'0 0.0
2018-Apr-16 13:29N 53°33' E 009°58'0 0.0
2018-Apr-16 12:59N 53°33' E 009°58'0 0.0
2018-Apr-16 12:29N 53°33' E 009°58'0 0.0
2018-Apr-16 11:59N 53°33' E 009°58'0 0.0
2018-Apr-16 11:29N 53°33' E 009°58'0 0.0
2018-Apr-16 10:59N 53°33' E 009°58'0 0.0
2018-Apr-16 10:29N 53°33' E 009°58'0 0.0
2018-Apr-16 09:59N 53°33' E 009°58'0 0.0
2018-Apr-16 09:29N 53°33' E 009°58'0 0.0
2018-Apr-16 08:59N 53°33' E 009°58'0 0.0
2018-Apr-16 08:29N 53°33' E 009°58'0 0.0
2018-Apr-16 07:59N 53°33' E 009°58'0 0.0
2018-Apr-16 07:29N 53°33' E 009°58'0 0.0
2018-Apr-16 06:59N 53°33' E 009°58'0 0.0
2018-Apr-16 06:29N 53°33' E 009°58'0 0.0
2018-Apr-16 05:59N 53°33' E 009°58'0 0.0
2018-Apr-16 05:29N 53°33' E 009°58'0 0.0
2018-Apr-16 04:59N 53°33' E 009°58'0 0.0
2018-Apr-16 04:29N 53°33' E 009°58'0 0.0
2018-Apr-16 03:59N 53°33' E 009°58'0 0.0
2018-Apr-16 03:29N 53°33' E 009°58'0 0.0
2018-Apr-16 02:59N 53°33' E 009°58'0 0.0
2018-Apr-16 02:29N 53°33' E 009°58'0 0.0
2018-Apr-16 01:59N 53°33' E 009°58'0 0.0
2018-Apr-16 01:29N 53°33' E 009°58'0 0.0
2018-Apr-16 00:59N 53°33' E 009°58'0 0.0
2018-Apr-16 00:29N 53°33' E 009°58'0 0.0
2018-Apr-15 23:59N 53°33' E 009°58'0 0.0
2018-Apr-15 23:29N 53°33' E 009°58'0 0.0
2018-Apr-15 22:59N 53°33' E 009°58'0 0.0
2018-Apr-15 22:29N 53°33' E 009°58'0 0.0
2018-Apr-15 21:59N 53°33' E 009°58'0 0.0
2018-Apr-15 21:29N 53°33' E 009°58'0 0.0
2018-Apr-15 20:59N 53°33' E 009°58'0 0.0
2018-Apr-15 20:29N 53°33' E 009°58'0 0.0
2018-Apr-15 19:59N 53°33' E 009°58'0 0.0
2018-Apr-15 19:29N 53°33' E 009°58'0 0.0
2018-Apr-15 18:59N 53°33' E 009°58'0 0.0
2018-Apr-15 18:29N 53°33' E 009°58'0 0.0
2018-Apr-15 17:59N 53°33' E 009°58'0 0.0
2018-Apr-15 17:29N 53°33' E 009°58'0 0.0
2018-Apr-15 16:59N 53°33' E 009°58'0 0.0
2018-Apr-15 16:29N 53°33' E 009°58'0 0.0
2018-Apr-15 15:59N 53°33' E 009°58'0 0.0
2018-Apr-15 15:29N 53°33' E 009°58'0 0.0
2018-Apr-15 14:59N 53°33' E 009°58'0 0.0
2018-Apr-15 14:29N 53°33' E 009°58'0 0.0
2018-Apr-15 13:59N 53°33' E 009°58'0 0.0
2018-Apr-15 13:29N 53°33' E 009°58'0 0.0
2018-Apr-15 12:59N 53°33' E 009°58'0 0.0
2018-Apr-15 12:29N 53°33' E 009°58'0 0.0
2018-Apr-15 11:59N 53°33' E 009°58'0 0.0
2018-Apr-15 11:29N 53°33' E 009°58'0 0.0
2018-Apr-15 10:59N 53°33' E 009°58'0 0.0
2018-Apr-15 10:29N 53°33' E 009°58'0 0.0
2018-Apr-15 09:59N 53°33' E 009°58'0 0.0
2018-Apr-15 09:29N 53°33' E 009°58'0 0.0
2018-Apr-15 08:59N 53°33' E 009°58'0 0.0
2018-Apr-15 08:29N 53°33' E 009°58'0 0.0
2018-Apr-15 07:59N 53°33' E 009°58'0 0.0
2018-Apr-15 07:29N 53°33' E 009°58'0 0.0
2018-Apr-15 06:59N 53°33' E 009°58'0 0.0
2018-Apr-15 06:29N 53°33' E 009°58'0 0.0
2018-Apr-15 05:59N 53°33' E 009°58'0 0.0
2018-Apr-15 05:29N 53°33' E 009°58'0 0.0
2018-Apr-15 04:59N 53°33' E 009°58'0 0.0
2018-Apr-15 04:29N 53°33' E 009°58'0 0.0
2018-Apr-15 03:59N 53°33' E 009°58'0 0.0
2018-Apr-15 03:29N 53°33' E 009°58'0 0.0
2018-Apr-15 02:59N 53°33' E 009°58'0 0.0
2018-Apr-15 02:29N 53°33' E 009°58'  

Dump ship's entire track history